createdAt,value
2024-02-29T00:00:22.247Z,1010.23
2024-02-29T00:01:22.570Z,1010.20
2024-02-29T00:02:22.122Z,1010.20
2024-02-29T00:03:22.321Z,1010.17
2024-02-29T00:04:22.231Z,1010.16
2024-02-29T00:05:22.090Z,1010.16
2024-02-29T00:06:22.208Z,1010.16
2024-02-29T00:07:22.116Z,1010.18
2024-02-29T00:08:22.072Z,1010.11
2024-02-29T00:09:22.074Z,1010.12
2024-02-29T00:10:22.177Z,1010.12
2024-02-29T00:11:22.300Z,1010.11
2024-02-29T00:12:22.242Z,1010.10
2024-02-29T00:13:22.076Z,1010.08
2024-02-29T00:14:22.376Z,1010.10
2024-02-29T00:15:22.200Z,1010.08
2024-02-29T00:16:22.010Z,1010.12
2024-02-29T00:17:22.001Z,1010.11
2024-02-29T00:18:22.209Z,1010.03
2024-02-29T00:19:22.020Z,1010.08
2024-02-29T00:20:21.934Z,1010.03
2024-02-29T00:21:22.237Z,1010.03
2024-02-29T00:22:22.127Z,1010.08
2024-02-29T00:23:21.916Z,1010.06
2024-02-29T00:24:22.048Z,1010.04
2024-02-29T00:25:22.020Z,1010.02
2024-02-29T00:26:21.863Z,1010.11
2024-02-29T00:27:22.202Z,1010.06
2024-02-29T00:28:21.833Z,1010.07
2024-02-29T00:29:22.095Z,1010.08
2024-02-29T00:30:21.968Z,1010.07
2024-02-29T00:31:21.835Z,1010.08
2024-02-29T00:32:21.841Z,1010.08
2024-02-29T00:33:21.898Z,1010.08
2024-02-29T00:34:21.820Z,1010.08
2024-02-29T00:35:21.822Z,1010.07
2024-02-29T00:36:21.867Z,1010.09
2024-02-29T00:37:21.799Z,1010.12
2024-02-29T00:38:21.821Z,1010.06
2024-02-29T00:39:21.822Z,1010.04
2024-02-29T00:40:21.752Z,1010.02
2024-02-29T00:41:21.738Z,1010.04
2024-02-29T00:42:21.781Z,1010.02
2024-02-29T00:43:21.813Z,1010.01
2024-02-29T00:44:21.746Z,1010.02
2024-02-29T00:45:22.637Z,1010.05
2024-02-29T00:46:21.716Z,1010.03
2024-02-29T00:47:21.807Z,1010.03
2024-02-29T00:48:21.820Z,1009.97
2024-02-29T00:49:21.638Z,1009.95
2024-02-29T00:50:21.635Z,1009.95
2024-02-29T00:51:21.699Z,1009.90
2024-02-29T00:52:21.709Z,1009.93
2024-02-29T00:53:21.722Z,1009.87
2024-02-29T00:54:21.764Z,1009.87
2024-02-29T00:55:21.603Z,1009.80
2024-02-29T00:56:21.615Z,1009.81
2024-02-29T00:57:21.557Z,1009.80
2024-02-29T00:58:21.640Z,1009.80
2024-02-29T00:59:21.650Z,1009.79
2024-02-29T01:00:21.762Z,1009.80
2024-02-29T01:01:21.797Z,1009.77
2024-02-29T01:02:21.518Z,1009.77
2024-02-29T01:03:21.730Z,1009.78
2024-02-29T01:04:21.533Z,1009.79
2024-02-29T01:05:21.595Z,1009.74
2024-02-29T01:06:21.599Z,1009.75
2024-02-29T01:07:21.490Z,1009.73
2024-02-29T01:08:21.826Z,1009.74
2024-02-29T01:09:21.809Z,1009.71
2024-02-29T01:10:21.476Z,1009.69
2024-02-29T01:11:21.415Z,1009.68
2024-02-29T01:12:21.560Z,1009.65
2024-02-29T01:13:21.390Z,1009.66
2024-02-29T01:14:21.388Z,1009.65
2024-02-29T01:15:21.360Z,1009.63
2024-02-29T01:16:21.503Z,1009.60
2024-02-29T01:17:21.382Z,1009.62
2024-02-29T01:18:21.388Z,1009.61
2024-02-29T01:19:21.723Z,1009.55
2024-02-29T01:20:21.382Z,1009.59
2024-02-29T01:21:21.501Z,1009.57
2024-02-29T01:22:21.367Z,1009.58
2024-02-29T01:23:21.301Z,1009.54
2024-02-29T01:24:21.308Z,1009.55
2024-02-29T01:25:21.326Z,1009.55
2024-02-29T01:26:21.341Z,1009.55
2024-02-29T01:27:21.329Z,1009.53
2024-02-29T01:28:21.217Z,1009.53
2024-02-29T01:29:21.346Z,1009.50
2024-02-29T01:30:21.318Z,1009.45
2024-02-29T01:31:21.452Z,1009.49
2024-02-29T01:32:26.494Z,1009.49
2024-02-29T01:33:22.257Z,1009.46
2024-02-29T01:34:21.179Z,1009.48
2024-02-29T01:35:21.178Z,1009.44
2024-02-29T01:36:21.201Z,1009.40
2024-02-29T01:37:21.248Z,1009.39
2024-02-29T01:38:21.165Z,1009.37
2024-02-29T01:39:21.143Z,1009.40
2024-02-29T01:40:21.213Z,1009.39
2024-02-29T01:41:21.090Z,1009.38
2024-02-29T01:42:21.116Z,1009.35
2024-02-29T01:43:21.183Z,1009.38
2024-02-29T01:44:21.174Z,1009.38
2024-02-29T01:45:21.074Z,1009.40
2024-02-29T01:46:21.057Z,1009.36
2024-02-29T01:47:21.037Z,1009.38
2024-02-29T01:48:21.085Z,1009.31
2024-02-29T01:49:21.213Z,1009.28
2024-02-29T01:50:21.183Z,1009.28
2024-02-29T01:51:21.278Z,1009.28
2024-02-29T01:52:21.339Z,1009.29
2024-02-29T01:53:21.461Z,1009.25
2024-02-29T01:54:21.000Z,1009.25
2024-02-29T01:55:21.164Z,1009.23
2024-02-29T01:56:21.180Z,1009.22
2024-02-29T01:57:20.989Z,1009.19
2024-02-29T01:58:21.034Z,1009.22
2024-02-29T01:59:20.927Z,1009.19
2024-02-29T02:00:21.098Z,1009.18
2024-02-29T02:01:21.402Z,1009.17
2024-02-29T02:02:20.875Z,1009.14
2024-02-29T02:03:21.012Z,1009.09
2024-02-29T02:04:20.935Z,1009.15
2024-02-29T02:05:21.373Z,1009.11
2024-02-29T02:06:20.903Z,1009.08
2024-02-29T02:07:21.778Z,1009.05
2024-02-29T02:08:20.814Z,1009.08
2024-02-29T02:09:20.893Z,1009.09
2024-02-29T02:10:20.913Z,1009.01
2024-02-29T02:11:21.077Z,1009.01
2024-02-29T02:12:20.801Z,1009.01
2024-02-29T02:13:20.801Z,1009.00
2024-02-29T02:14:20.736Z,1009.03
2024-02-29T02:15:20.721Z,1008.98
2024-02-29T02:16:20.856Z,1008.98
2024-02-29T02:17:21.283Z,1008.97
2024-02-29T02:18:20.713Z,1008.95
2024-02-29T02:19:20.776Z,1008.88
2024-02-29T02:20:20.682Z,1008.87
2024-02-29T02:21:20.884Z,1008.89
2024-02-29T02:22:20.643Z,1008.87
2024-02-29T02:23:20.738Z,1008.85
2024-02-29T02:24:20.720Z,1008.81
2024-02-29T02:25:20.671Z,1008.81
2024-02-29T02:26:20.626Z,1008.77
2024-02-29T02:27:20.620Z,1008.79
2024-02-29T02:28:20.589Z,1008.76
2024-02-29T02:29:20.741Z,1008.72
2024-02-29T02:30:20.765Z,1008.70
2024-02-29T02:31:20.561Z,1008.69
2024-02-29T02:32:20.557Z,1008.64
2024-02-29T02:33:20.531Z,1008.63
2024-02-29T02:34:20.585Z,1008.66
2024-02-29T02:35:20.621Z,1008.65
2024-02-29T02:36:20.522Z,1008.58
2024-02-29T02:37:20.749Z,1008.58
2024-02-29T02:38:20.497Z,1008.55
2024-02-29T02:39:20.500Z,1008.49
2024-02-29T02:40:20.766Z,1008.49
2024-02-29T02:41:20.491Z,1008.48
2024-02-29T02:42:21.430Z,1008.48
2024-02-29T02:43:20.517Z,1008.44
2024-02-29T02:44:20.448Z,1008.48
2024-02-29T02:45:20.605Z,1008.50
2024-02-29T02:46:20.837Z,1008.43
2024-02-29T02:47:20.406Z,1008.38
2024-02-29T02:48:20.980Z,1008.39
2024-02-29T02:49:20.780Z,1008.38
2024-02-29T02:50:20.420Z,1008.35
2024-02-29T02:51:20.334Z,1008.32
2024-02-29T02:52:20.509Z,1008.27
2024-02-29T02:53:20.533Z,1008.26
2024-02-29T02:54:20.462Z,1008.27
2024-02-29T02:55:20.386Z,1008.28
2024-02-29T02:56:20.275Z,1008.28
2024-02-29T02:57:20.334Z,1008.27
2024-02-29T02:58:20.350Z,1008.25
2024-02-29T02:59:20.335Z,1008.26
2024-02-29T03:00:20.328Z,1008.29
2024-02-29T03:01:20.733Z,1008.25
2024-02-29T03:02:20.511Z,1008.27
2024-02-29T03:03:20.317Z,1008.29
2024-02-29T03:04:20.359Z,1008.30
2024-02-29T03:05:20.267Z,1008.27
2024-02-29T03:06:20.905Z,1008.27
2024-02-29T03:07:20.443Z,1008.24
2024-02-29T03:08:20.169Z,1008.23
2024-02-29T03:09:20.289Z,1008.24
2024-02-29T03:10:20.250Z,1008.23
2024-02-29T03:11:20.298Z,1008.21
2024-02-29T03:12:20.306Z,1008.17
2024-02-29T03:13:20.117Z,1008.19
2024-02-29T03:14:20.093Z,1008.16
2024-02-29T03:15:20.294Z,1008.13
2024-02-29T03:16:20.150Z,1008.14
2024-02-29T03:17:20.075Z,1008.09
2024-02-29T03:18:20.145Z,1008.07
2024-02-29T03:19:20.120Z,1008.03
2024-02-29T03:20:20.335Z,1008.01
2024-02-29T03:21:20.023Z,1007.97
2024-02-29T03:22:20.257Z,1007.96
2024-02-29T03:23:20.209Z,1007.93
2024-02-29T03:24:20.030Z,1007.89
2024-02-29T03:25:20.028Z,1007.89
2024-02-29T03:26:19.988Z,1007.89
2024-02-29T03:27:19.965Z,1007.88
2024-02-29T03:28:20.063Z,1007.86
2024-02-29T03:29:20.077Z,1007.83
2024-02-29T03:30:19.955Z,1007.85
2024-02-29T03:31:20.009Z,1007.86
2024-02-29T03:32:19.897Z,1007.81
2024-02-29T03:33:19.907Z,1007.76
2024-02-29T03:34:19.997Z,1007.78
2024-02-29T03:35:19.893Z,1007.80
2024-02-29T03:36:19.918Z,1007.78
2024-02-29T03:37:19.958Z,1007.80
2024-02-29T03:38:19.831Z,1007.73
2024-02-29T03:39:19.908Z,1007.77
2024-02-29T03:40:19.971Z,1007.70
2024-02-29T03:41:19.809Z,1007.73
2024-02-29T03:42:19.927Z,1007.68
2024-02-29T03:43:19.827Z,1007.68
2024-02-29T03:44:19.778Z,1007.68
2024-02-29T03:45:19.799Z,1007.61
2024-02-29T03:46:19.801Z,1007.64
2024-02-29T03:47:20.735Z,1007.58
2024-02-29T03:48:19.763Z,1007.58
2024-02-29T03:49:19.769Z,1007.63
2024-02-29T03:50:19.764Z,1007.62
2024-02-29T03:51:19.712Z,1007.57
2024-02-29T03:52:19.775Z,1007.55
2024-02-29T03:53:19.692Z,1007.59
2024-02-29T03:54:19.714Z,1007.59
2024-02-29T03:55:19.855Z,1007.50
2024-02-29T03:56:19.741Z,1007.51
2024-02-29T03:57:19.641Z,1007.52
2024-02-29T03:58:19.662Z,1007.45
2024-02-29T03:59:19.780Z,1007.45
2024-02-29T04:00:19.792Z,1007.44
2024-02-29T04:01:19.680Z,1007.42
2024-02-29T04:02:19.603Z,1007.38
2024-02-29T04:03:19.638Z,1007.39
2024-02-29T04:04:19.653Z,1007.37
2024-02-29T04:05:19.795Z,1007.38
2024-02-29T04:06:19.794Z,1007.39
2024-02-29T04:07:19.818Z,1007.35
2024-02-29T04:08:19.631Z,1007.30
2024-02-29T04:09:19.546Z,1007.31
2024-02-29T04:10:19.510Z,1007.27
2024-02-29T04:11:19.532Z,1007.29
2024-02-29T04:12:19.565Z,1007.25
2024-02-29T04:13:19.527Z,1007.18
2024-02-29T04:14:19.800Z,1007.22
2024-02-29T04:15:19.607Z,1007.25
2024-02-29T04:16:19.828Z,1007.20
2024-02-29T04:17:19.793Z,1007.21
2024-02-29T04:18:19.465Z,1007.18
2024-02-29T04:19:19.531Z,1007.18
2024-02-29T04:20:19.405Z,1007.15
2024-02-29T04:21:19.380Z,1007.12
2024-02-29T04:22:19.581Z,1007.15
2024-02-29T04:23:19.364Z,1007.11
2024-02-29T04:24:19.396Z,1007.13
2024-02-29T04:25:19.485Z,1007.11
2024-02-29T04:26:19.364Z,1007.12
2024-02-29T04:27:19.311Z,1007.08
2024-02-29T04:28:19.813Z,1007.10
2024-02-29T04:29:19.296Z,1007.09
2024-02-29T04:30:19.757Z,1007.10
2024-02-29T04:31:19.345Z,1007.11
2024-02-29T04:32:19.494Z,1007.09
2024-02-29T04:33:19.538Z,1007.07
2024-02-29T04:34:19.289Z,1007.09
2024-02-29T04:35:19.246Z,1007.09
2024-02-29T04:36:19.354Z,1007.08
2024-02-29T04:37:19.268Z,1007.09
2024-02-29T04:38:19.216Z,1006.99
2024-02-29T04:39:19.481Z,1007.06
2024-02-29T04:40:19.808Z,1007.02
2024-02-29T04:41:19.186Z,1007.08
2024-02-29T04:42:19.203Z,1007.04
2024-02-29T04:43:19.203Z,1007.03
2024-02-29T04:44:19.171Z,1007.04
2024-02-29T04:45:19.116Z,1007.04
2024-02-29T04:46:19.190Z,1007.05
2024-02-29T04:47:19.141Z,1007.05
2024-02-29T04:48:19.173Z,1007.00
2024-02-29T04:49:19.148Z,1006.99
2024-02-29T04:50:19.142Z,1007.01
2024-02-29T04:51:19.159Z,1007.01
2024-02-29T04:52:19.211Z,1006.95
2024-02-29T04:53:19.149Z,1006.93
2024-02-29T04:54:19.150Z,1006.96
2024-02-29T04:55:19.071Z,1006.96
2024-02-29T04:56:19.104Z,1006.95
2024-02-29T04:57:19.151Z,1006.91
2024-02-29T04:58:19.271Z,1006.95
2024-02-29T04:59:19.060Z,1006.95
2024-02-29T05:00:19.014Z,1006.93
2024-02-29T05:01:19.266Z,1006.93
2024-02-29T05:02:19.119Z,1006.91
2024-02-29T05:03:18.938Z,1006.93
2024-02-29T05:04:19.103Z,1006.94
2024-02-29T05:05:19.027Z,1006.91
2024-02-29T05:06:19.127Z,1006.94
2024-02-29T05:07:19.218Z,1006.92
2024-02-29T05:08:19.175Z,1006.86
2024-02-29T05:09:18.911Z,1006.86
2024-02-29T05:10:18.930Z,1006.86
2024-02-29T05:11:18.862Z,1006.88
2024-02-29T05:12:18.950Z,1006.83
2024-02-29T05:13:19.039Z,1006.83
2024-02-29T05:14:18.841Z,1006.81
2024-02-29T05:15:18.883Z,1006.78
2024-02-29T05:16:19.034Z,1006.76
2024-02-29T05:17:18.780Z,1006.80
2024-02-29T05:18:19.098Z,1006.74
2024-02-29T05:19:19.030Z,1006.72
2024-02-29T05:20:18.771Z,1006.69
2024-02-29T05:21:18.748Z,1006.69
2024-02-29T05:22:18.826Z,1006.71
2024-02-29T05:23:18.764Z,1006.69
2024-02-29T05:24:18.802Z,1006.72
2024-02-29T05:25:18.819Z,1006.75
2024-02-29T05:26:18.783Z,1006.72
2024-02-29T05:27:18.833Z,1006.72
2024-02-29T05:28:18.745Z,1006.69
2024-02-29T05:29:18.681Z,1006.68
2024-02-29T05:30:18.697Z,1006.70
2024-02-29T05:31:18.970Z,1006.68
2024-02-29T05:32:19.256Z,1006.68
2024-02-29T05:33:18.613Z,1006.67
2024-02-29T05:34:18.683Z,1006.67
2024-02-29T05:35:18.602Z,1006.68
2024-02-29T05:36:18.627Z,1006.69
2024-02-29T05:37:18.668Z,1006.66
2024-02-29T05:38:18.589Z,1006.64
2024-02-29T05:39:18.579Z,1006.59
2024-02-29T05:40:18.646Z,1006.66
2024-02-29T05:41:18.582Z,1006.60
2024-02-29T05:42:18.661Z,1006.59
2024-02-29T05:43:18.602Z,1006.57
2024-02-29T05:44:18.519Z,1006.57
2024-02-29T05:45:19.100Z,1006.53
2024-02-29T05:46:18.527Z,1006.56
2024-02-29T05:47:18.467Z,1006.56
2024-02-29T05:48:18.718Z,1006.50
2024-02-29T05:49:18.492Z,1006.54
2024-02-29T05:50:18.463Z,1006.49
2024-02-29T05:51:18.425Z,1006.51
2024-02-29T05:52:18.476Z,1006.51
2024-02-29T05:53:18.417Z,1006.49
2024-02-29T05:54:19.397Z,1006.48
2024-02-29T05:55:18.435Z,1006.43
2024-02-29T05:56:18.412Z,1006.43
2024-02-29T05:57:18.533Z,1006.43
2024-02-29T05:58:18.418Z,1006.38
2024-02-29T05:59:18.356Z,1006.40
2024-02-29T06:00:18.577Z,1006.39
2024-02-29T06:01:18.445Z,1006.35
2024-02-29T06:02:18.393Z,1006.37
2024-02-29T06:03:18.395Z,1006.31
2024-02-29T06:04:18.489Z,1006.29
2024-02-29T06:05:18.390Z,1006.32
2024-02-29T06:06:18.400Z,1006.27
2024-02-29T06:07:18.312Z,1006.28
2024-02-29T06:08:18.423Z,1006.28
2024-02-29T06:09:18.628Z,1006.24
2024-02-29T06:10:18.268Z,1006.24
2024-02-29T06:11:18.483Z,1006.23
2024-02-29T06:12:18.256Z,1006.30
2024-02-29T06:13:18.465Z,1006.24
2024-02-29T06:14:20.172Z,1006.22
2024-02-29T06:15:18.243Z,1006.24
2024-02-29T06:16:18.214Z,1006.27
2024-02-29T06:17:18.264Z,1006.25
2024-02-29T06:18:18.234Z,1006.31
2024-02-29T06:19:18.568Z,1006.28
2024-02-29T06:20:18.481Z,1006.27
2024-02-29T06:21:18.102Z,1006.23
2024-02-29T06:22:18.551Z,1006.21
2024-02-29T06:23:18.107Z,1006.23
2024-02-29T06:24:18.123Z,1006.25
2024-02-29T06:25:18.174Z,1006.20
2024-02-29T06:26:18.132Z,1006.24
2024-02-29T06:27:18.071Z,1006.25
2024-02-29T06:28:20.984Z,1006.23
2024-02-29T06:29:18.148Z,1006.19
2024-02-29T06:30:18.148Z,1006.17
2024-02-29T06:31:18.219Z,1006.15
2024-02-29T06:32:18.162Z,1006.19
2024-02-29T06:33:18.229Z,1006.18
2024-02-29T06:34:18.160Z,1006.22
2024-02-29T06:35:17.971Z,1006.21
2024-02-29T06:36:18.187Z,1006.17
2024-02-29T06:37:18.342Z,1006.18
2024-02-29T06:38:17.999Z,1006.22
2024-02-29T06:39:18.009Z,1006.22
2024-02-29T06:40:18.298Z,1006.19
2024-02-29T06:41:18.314Z,1006.23
2024-02-29T06:42:17.990Z,1006.20
2024-02-29T06:43:17.970Z,1006.13
2024-02-29T06:44:18.175Z,1006.12
2024-02-29T06:45:18.109Z,1006.13
2024-02-29T06:46:18.536Z,1006.11
2024-02-29T06:47:17.882Z,1006.14
2024-02-29T06:48:17.903Z,1006.11
2024-02-29T06:49:17.963Z,1006.16
2024-02-29T06:50:17.970Z,1006.17
2024-02-29T06:51:18.766Z,1006.16
2024-02-29T06:52:18.397Z,1006.19
2024-02-29T06:53:17.773Z,1006.21
2024-02-29T06:54:18.420Z,1006.17
2024-02-29T06:55:17.857Z,1006.14
2024-02-29T06:56:17.761Z,1006.16
2024-02-29T06:57:18.731Z,1006.14
2024-02-29T06:58:18.761Z,1006.15
2024-02-29T06:59:17.767Z,1006.05
2024-02-29T07:00:17.786Z,1006.06
2024-02-29T07:01:18.701Z,1006.03
2024-02-29T07:02:17.707Z,1006.04
2024-02-29T07:03:17.778Z,1006.02
2024-02-29T07:04:17.869Z,1006.06
2024-02-29T07:05:17.724Z,1006.00
2024-02-29T07:06:17.720Z,1006.03
2024-02-29T07:07:17.947Z,1005.93
2024-02-29T07:08:17.775Z,1005.95
2024-02-29T07:09:17.765Z,1005.94
2024-02-29T07:10:17.788Z,1005.91
2024-02-29T07:11:17.780Z,1005.89
2024-02-29T07:12:17.762Z,1005.89
2024-02-29T07:13:17.742Z,1005.87
2024-02-29T07:14:17.640Z,1005.86
2024-02-29T07:15:17.549Z,1005.84
2024-02-29T07:16:17.693Z,1005.84
2024-02-29T07:17:17.661Z,1005.84
2024-02-29T07:18:17.831Z,1005.89
2024-02-29T07:19:17.620Z,1005.82
2024-02-29T07:20:18.463Z,1005.80
2024-02-29T07:21:17.624Z,1005.81
2024-02-29T07:22:17.557Z,1005.79
2024-02-29T07:23:17.487Z,1005.76
2024-02-29T07:24:17.541Z,1005.79
2024-02-29T07:25:17.560Z,1005.82
2024-02-29T07:26:17.461Z,1005.79
2024-02-29T07:27:17.630Z,1005.76
2024-02-29T07:28:17.499Z,1005.79
2024-02-29T07:29:17.577Z,1005.78
2024-02-29T07:30:17.761Z,1005.78
2024-02-29T07:31:17.444Z,1005.79
2024-02-29T07:32:17.413Z,1005.77
2024-02-29T07:33:17.388Z,1005.80
2024-02-29T07:34:17.407Z,1005.79
2024-02-29T07:35:17.327Z,1005.76
2024-02-29T07:36:17.557Z,1005.80
2024-02-29T07:37:17.390Z,1005.76
2024-02-29T07:38:17.349Z,1005.74
2024-02-29T07:39:17.318Z,1005.69
2024-02-29T07:40:17.380Z,1005.71
2024-02-29T07:41:17.317Z,1005.71
2024-02-29T07:42:17.336Z,1005.72
2024-02-29T07:43:17.312Z,1005.73
2024-02-29T07:44:17.265Z,1005.70
2024-02-29T07:45:20.542Z,1005.70
2024-02-29T07:46:17.365Z,1005.69
2024-02-29T07:47:17.202Z,1005.66
2024-02-29T07:48:17.455Z,1005.65
2024-02-29T07:49:17.294Z,1005.67
2024-02-29T07:50:17.452Z,1005.70
2024-02-29T07:51:17.235Z,1005.73
2024-02-29T07:52:17.562Z,1005.69
2024-02-29T07:53:17.352Z,1005.71
2024-02-29T07:54:17.252Z,1005.67
2024-02-29T07:55:17.239Z,1005.68
2024-02-29T07:56:17.131Z,1005.66
2024-02-29T07:57:17.097Z,1005.65
2024-02-29T07:58:17.402Z,1005.68
2024-02-29T07:59:17.125Z,1005.69
2024-02-29T08:00:17.357Z,1005.68
2024-02-29T08:01:17.435Z,1005.69
2024-02-29T08:02:17.087Z,1005.57
2024-02-29T08:03:17.365Z,1005.60
2024-02-29T08:04:17.448Z,1005.57
2024-02-29T08:05:17.004Z,1005.56
2024-02-29T08:06:17.023Z,1005.60
2024-02-29T08:07:17.020Z,1005.55
2024-02-29T08:08:16.994Z,1005.49
2024-02-29T08:09:17.100Z,1005.49
2024-02-29T08:10:17.641Z,1005.49
2024-02-29T08:11:16.949Z,1005.51
2024-02-29T08:12:17.400Z,1005.53
2024-02-29T08:13:17.308Z,1005.55
2024-02-29T08:14:18.984Z,1005.52
2024-02-29T08:15:17.061Z,1005.42
2024-02-29T08:16:16.989Z,1005.48
2024-02-29T08:17:16.886Z,1005.49
2024-02-29T08:18:17.891Z,1005.44
2024-02-29T08:19:16.910Z,1005.47
2024-02-29T08:20:16.864Z,1005.44
2024-02-29T08:21:16.849Z,1005.47
2024-02-29T08:22:16.891Z,1005.38
2024-02-29T08:23:16.863Z,1005.39
2024-02-29T08:24:16.875Z,1005.35
2024-02-29T08:25:16.879Z,1005.42
2024-02-29T08:26:16.866Z,1005.40
2024-02-29T08:27:16.805Z,1005.44
2024-02-29T08:28:17.048Z,1005.37
2024-02-29T08:29:16.773Z,1005.37
2024-02-29T08:30:16.775Z,1005.42
2024-02-29T08:31:16.795Z,1005.40
2024-02-29T08:32:16.760Z,1005.38
2024-02-29T08:33:16.813Z,1005.34
2024-02-29T08:34:17.470Z,1005.27
2024-02-29T08:35:16.709Z,1005.23
2024-02-29T08:36:16.780Z,1005.25
2024-02-29T08:37:16.802Z,1005.23
2024-02-29T08:38:16.682Z,1005.20
2024-02-29T08:39:16.714Z,1005.12
2024-02-29T08:40:16.715Z,1005.17
2024-02-29T08:41:16.641Z,1005.15
2024-02-29T08:42:16.772Z,1005.11
2024-02-29T08:43:16.816Z,1005.16
2024-02-29T08:44:16.616Z,1005.12
2024-02-29T08:45:18.466Z,1005.16
2024-02-29T08:46:16.690Z,1005.16
2024-02-29T08:47:16.601Z,1005.11
2024-02-29T08:48:16.671Z,1005.15
2024-02-29T08:49:16.658Z,1005.20
2024-02-29T08:50:16.533Z,1005.12
2024-02-29T08:51:16.885Z,1005.12
2024-02-29T08:52:16.574Z,1005.13
2024-02-29T08:53:16.495Z,1005.12
2024-02-29T08:54:16.520Z,1005.12
2024-02-29T08:55:16.552Z,1005.12
2024-02-29T08:56:16.495Z,1005.16
2024-02-29T08:57:17.016Z,1004.96
2024-02-29T08:58:16.509Z,1005.12
2024-02-29T08:59:18.741Z,1005.05
2024-02-29T09:00:16.589Z,1005.08
2024-02-29T09:01:16.479Z,1005.12
2024-02-29T09:02:17.080Z,1005.12
2024-02-29T09:03:16.439Z,1005.07
2024-02-29T09:04:16.584Z,1005.02
2024-02-29T09:05:16.456Z,1005.06
2024-02-29T09:06:16.498Z,1005.05
2024-02-29T09:07:16.424Z,1004.97
2024-02-29T09:08:17.030Z,1005.06
2024-02-29T09:09:16.631Z,1005.00
2024-02-29T09:10:16.364Z,1004.98
2024-02-29T09:11:16.548Z,1004.90
2024-02-29T09:12:16.613Z,1005.01
2024-02-29T09:13:29.336Z,1004.95
2024-02-29T09:14:17.473Z,1004.90
2024-02-29T09:15:16.268Z,1004.90
2024-02-29T09:16:16.348Z,1004.90
2024-02-29T09:17:16.860Z,1004.83
2024-02-29T09:18:16.279Z,1004.83
2024-02-29T09:19:16.310Z,1004.84
2024-02-29T09:20:16.461Z,1004.84
2024-02-29T09:21:16.203Z,1004.82
2024-02-29T09:22:16.225Z,1004.84
2024-02-29T09:23:16.195Z,1004.84
2024-02-29T09:24:16.457Z,1004.86
2024-02-29T09:25:16.344Z,1004.75
2024-02-29T09:26:16.736Z,1004.67
2024-02-29T09:27:16.519Z,1004.65
2024-02-29T09:28:16.763Z,1004.75
2024-02-29T09:29:16.145Z,1004.73
2024-02-29T09:30:16.200Z,1004.66
2024-02-29T09:31:16.255Z,1004.67
2024-02-29T09:32:16.083Z,1004.70
2024-02-29T09:33:16.190Z,1004.62
2024-02-29T09:34:16.114Z,1004.68
2024-02-29T09:35:16.064Z,1004.63
2024-02-29T09:36:16.077Z,1004.64
2024-02-29T09:37:16.295Z,1004.59
2024-02-29T09:38:16.298Z,1004.64
2024-02-29T09:39:16.235Z,1004.62
2024-02-29T09:40:16.056Z,1004.67
2024-02-29T09:41:32.258Z,1004.62
2024-02-29T09:42:19.250Z,1004.63
2024-02-29T09:43:16.188Z,1004.61
2024-02-29T09:44:15.936Z,1004.57
2024-02-29T09:45:15.957Z,1004.59
2024-02-29T09:46:16.092Z,1004.56
2024-02-29T09:47:15.997Z,1004.53
2024-02-29T09:48:16.232Z,1004.41
2024-02-29T09:49:16.082Z,1004.53
2024-02-29T09:50:15.891Z,1004.49
2024-02-29T09:51:16.662Z,1004.49
2024-02-29T09:52:15.974Z,1004.47
2024-02-29T09:53:16.213Z,1004.47
2024-02-29T09:54:16.156Z,1004.39
2024-02-29T09:55:15.986Z,1004.51
2024-02-29T09:56:15.840Z,1004.41
2024-02-29T09:57:15.841Z,1004.41
2024-02-29T09:58:17.838Z,1004.43
2024-02-29T09:59:16.400Z,1004.34
2024-02-29T10:00:16.543Z,1004.40
2024-02-29T10:01:16.717Z,1004.45
2024-02-29T10:02:15.977Z,1004.37
2024-02-29T10:03:15.772Z,1004.38
2024-02-29T10:04:15.845Z,1004.41
2024-02-29T10:05:15.739Z,1004.29
2024-02-29T10:06:15.744Z,1004.33
2024-02-29T10:07:15.977Z,1004.30
2024-02-29T10:08:15.694Z,1004.32
2024-02-29T10:09:15.708Z,1004.31
2024-02-29T10:10:15.844Z,1004.25
2024-02-29T10:11:15.769Z,1004.35
2024-02-29T10:12:15.752Z,1004.26
2024-02-29T10:13:15.764Z,1004.26
2024-02-29T10:14:15.612Z,1004.36
2024-02-29T10:15:15.729Z,1004.26
2024-02-29T10:16:15.838Z,1004.29
2024-02-29T10:17:15.647Z,1004.27
2024-02-29T10:18:15.716Z,1004.21
2024-02-29T10:19:15.813Z,1004.24
2024-02-29T10:20:15.742Z,1004.26
2024-02-29T10:21:15.730Z,1004.34
2024-02-29T10:22:15.770Z,1004.37
2024-02-29T10:23:15.558Z,1004.24
2024-02-29T10:24:15.575Z,1004.29
2024-02-29T10:25:15.613Z,1004.23
2024-02-29T10:26:15.491Z,1004.21
2024-02-29T10:27:15.496Z,1004.25
2024-02-29T10:28:15.566Z,1004.23
2024-02-29T10:29:15.490Z,1004.13
2024-02-29T10:30:15.700Z,1004.26
2024-02-29T10:31:15.571Z,1004.25
2024-02-29T10:32:15.433Z,1004.18
2024-02-29T10:33:15.416Z,1004.17
2024-02-29T10:34:15.784Z,1004.21
2024-02-29T10:35:15.399Z,1004.16
2024-02-29T10:36:15.417Z,1004.09
2024-02-29T10:37:15.437Z,1004.04
2024-02-29T10:38:15.362Z,1004.09
2024-02-29T10:39:15.689Z,1004.09
2024-02-29T10:40:15.769Z,1004.06
2024-02-29T10:41:15.343Z,1004.07
2024-02-29T10:42:15.393Z,1003.99
2024-02-29T10:43:15.383Z,1004.04
2024-02-29T10:44:15.293Z,1004.03
2024-02-29T10:45:15.286Z,1003.96
2024-02-29T10:46:15.458Z,1004.04
2024-02-29T10:47:15.267Z,1003.98
2024-02-29T10:48:15.314Z,1003.93
2024-02-29T10:49:15.348Z,1003.90
2024-02-29T10:50:15.248Z,1003.92
2024-02-29T10:51:15.234Z,1003.94
2024-02-29T10:52:15.389Z,1003.89
2024-02-29T10:53:15.755Z,1003.82
2024-02-29T10:54:16.170Z,1003.71
2024-02-29T10:55:15.254Z,1003.71
2024-02-29T10:56:15.164Z,1003.78
2024-02-29T10:57:15.197Z,1003.77
2024-02-29T10:58:15.180Z,1003.76
2024-02-29T10:59:15.136Z,1003.68
2024-02-29T11:00:15.167Z,1003.67
2024-02-29T11:01:15.209Z,1003.67
2024-02-29T11:02:15.100Z,1003.63
2024-02-29T11:03:15.170Z,1003.70
2024-02-29T11:04:15.137Z,1003.64
2024-02-29T11:05:15.078Z,1003.69
2024-02-29T11:06:15.221Z,1003.58
2024-02-29T11:07:15.287Z,1003.62
2024-02-29T11:08:15.038Z,1003.57
2024-02-29T11:09:15.059Z,1003.56
2024-02-29T11:10:15.093Z,1003.52
2024-02-29T11:11:15.131Z,1003.42
2024-02-29T11:12:15.207Z,1003.42
2024-02-29T11:13:15.093Z,1003.42
2024-02-29T11:14:14.974Z,1003.45
2024-02-29T11:15:15.090Z,1003.33
2024-02-29T11:16:14.990Z,1003.37
2024-02-29T11:17:15.104Z,1003.33
2024-02-29T11:18:15.147Z,1003.39
2024-02-29T11:19:15.137Z,1003.36
2024-02-29T11:20:14.951Z,1003.25
2024-02-29T11:21:15.143Z,1003.25
2024-02-29T11:22:15.335Z,1003.29
2024-02-29T11:23:14.910Z,1003.25
2024-02-29T11:24:15.017Z,1003.16
2024-02-29T11:25:15.295Z,1003.22
2024-02-29T11:26:15.270Z,1003.22
2024-02-29T11:27:15.006Z,1003.21
2024-02-29T11:28:14.956Z,1003.16
2024-02-29T11:29:15.377Z,1003.13
2024-02-29T11:30:14.826Z,1003.08
2024-02-29T11:31:14.902Z,1003.06
2024-02-29T11:32:15.071Z,1003.06
2024-02-29T11:33:14.883Z,1003.13
2024-02-29T11:34:14.803Z,1003.09
2024-02-29T11:35:14.767Z,1003.08
2024-02-29T11:36:14.794Z,1003.14
2024-02-29T11:37:15.075Z,1002.99
2024-02-29T11:38:22.250Z,1002.98
2024-02-29T11:39:15.754Z,1002.88
2024-02-29T11:40:14.734Z,1002.90
2024-02-29T11:41:14.719Z,1002.85
2024-02-29T11:42:15.585Z,1002.81
2024-02-29T11:43:14.776Z,1002.83
2024-02-29T11:44:14.900Z,1002.83
2024-02-29T11:45:15.312Z,1002.76
2024-02-29T11:46:16.731Z,1002.79
2024-02-29T11:47:14.979Z,1002.69
2024-02-29T11:48:14.695Z,1002.85
2024-02-29T11:49:14.613Z,1002.74
2024-02-29T11:50:15.044Z,1002.65
2024-02-29T11:51:14.749Z,1002.64
2024-02-29T11:52:14.601Z,1002.62
2024-02-29T11:53:14.566Z,1002.64
2024-02-29T11:54:14.710Z,1002.57
2024-02-29T11:55:14.628Z,1002.51
2024-02-29T11:56:16.264Z,1002.47
2024-02-29T11:57:14.545Z,1002.51
2024-02-29T11:58:14.572Z,1002.53
2024-02-29T11:59:14.527Z,1002.45
2024-02-29T12:00:14.534Z,1002.44
2024-02-29T12:01:14.690Z,1002.39
2024-02-29T12:02:14.937Z,1002.37
2024-02-29T12:03:14.463Z,1002.34
2024-02-29T12:04:14.488Z,1002.32
2024-02-29T12:05:16.067Z,1002.36